createdAt,value
2018-09-12T13:01:41.247Z,22.9
2018-09-12T13:02:01.484Z,23.1
2018-09-12T13:02:21.781Z,22.7
2018-09-12T13:02:41.979Z,22.9
2018-09-12T13:03:02.106Z,23.1
2018-09-12T13:03:22.265Z,22.9
2018-09-12T13:03:42.411Z,23.4
2018-09-12T13:04:02.569Z,23.6
2018-09-12T13:04:22.757Z,24.2
2018-09-12T13:04:42.921Z,24.1
2018-09-12T13:05:03.063Z,23
2018-09-12T13:05:23.233Z,23.1
2018-09-12T13:05:43.505Z,23.5
2018-09-12T13:06:03.581Z,23.7
2018-09-12T13:06:23.745Z,23.9
2018-09-12T13:06:44.337Z,24.4
2018-09-12T13:07:04.481Z,24.1
2018-09-12T13:07:24.736Z,24.1
2018-09-12T13:07:44.940Z,23.7
2018-09-12T13:08:05.521Z,24
2018-09-12T13:08:26.144Z,24.3
2018-09-12T13:08:46.345Z,24.6
2018-09-12T13:09:06.497Z,25.6
2018-09-12T13:09:26.662Z,25
2018-09-12T13:09:46.846Z,23.9
2018-09-12T13:10:07.007Z,23
2018-09-12T13:10:27.190Z,22.5
2018-09-12T13:10:47.698Z,22.6
2018-09-12T13:11:07.872Z,22.7
2018-09-12T13:11:28.055Z,21.4
2018-09-12T13:11:48.218Z,21.5
2018-09-12T13:12:08.378Z,21.3
2018-09-12T13:12:28.513Z,22.2
2018-09-12T13:12:48.691Z,22.4
2018-09-12T13:13:10.292Z,22.7
2018-09-12T13:13:30.795Z,22.6
2018-09-12T13:13:51.840Z,22.6
2018-09-12T13:14:12.884Z,22.9
2018-09-12T13:14:33.498Z,23.1
2018-09-12T13:14:53.847Z,23
2018-09-12T13:15:14.172Z,21.9
2018-09-12T13:15:34.371Z,22.4
2018-09-12T13:15:54.623Z,22.9
2018-09-12T13:16:14.804Z,23.1
2018-09-12T13:16:35.260Z,23.5
2018-09-12T13:16:55.985Z,23.8
2018-09-12T13:17:16.259Z,23.9
2018-09-12T13:17:36.503Z,23.9
2018-09-12T13:17:56.716Z,24
2018-09-12T13:18:16.987Z,24
2018-09-12T13:18:37.266Z,23.8
2018-09-12T13:18:57.533Z,24.1
2018-09-12T13:19:17.710Z,23.6
2018-09-12T13:21:44.810Z,23.2
2018-09-12T13:22:05.239Z,22.7
2018-09-12T13:22:25.635Z,22.9
2018-09-12T13:22:45.926Z,23.1
2018-09-12T13:23:06.132Z,22.2
2018-09-12T13:23:26.316Z,22.3
2018-09-12T13:23:46.505Z,22.5
2018-09-12T13:24:06.653Z,22.5
2018-09-12T13:24:26.802Z,22.5
2018-09-12T13:24:47.045Z,22.5
2018-09-12T13:25:07.206Z,22.4
2018-09-12T13:25:27.404Z,22.5
2018-09-12T13:25:47.549Z,22.5
2018-09-12T13:26:07.737Z,22.5
2018-09-12T13:26:27.954Z,22.4
2018-09-12T13:26:48.740Z,21.9
2018-09-12T13:27:09.017Z,22.9
2018-09-12T13:27:29.186Z,22.7
2018-09-12T13:27:49.475Z,22.3
2018-09-12T13:28:09.615Z,22.8
2018-09-12T13:28:29.859Z,22.6
2018-09-12T13:28:50.048Z,22.5
2018-09-12T13:29:10.256Z,23
2018-09-12T13:29:30.417Z,22.9
2018-09-12T13:29:50.571Z,22.7
2018-09-12T13:30:10.943Z,23
2018-09-12T13:30:31.120Z,22.8
2018-09-12T13:30:51.389Z,22.6
2018-09-12T13:31:11.572Z,22.8
2018-09-12T13:31:31.762Z,22.6
2018-09-12T13:31:52.163Z,23.2
2018-09-12T13:32:12.331Z,22.3
2018-09-12T13:32:32.493Z,22.4
2018-09-12T13:32:52.698Z,21.7
2018-09-12T13:33:12.866Z,21.3
2018-09-12T13:33:33.083Z,20.5
2018-09-12T13:33:53.876Z,20.5
2018-09-12T13:34:14.101Z,20.8
2018-09-12T13:34:34.336Z,21.4
2018-09-12T13:34:54.475Z,20.9
2018-09-12T13:35:14.629Z,21.4
2018-09-12T13:35:34.795Z,21.7
2018-09-12T13:35:54.949Z,21.7
2018-09-12T13:36:15.125Z,21.7
2018-09-12T13:36:35.323Z,22.1
2018-09-12T13:36:55.505Z,21.7
2018-09-12T13:37:15.712Z,21.8
2018-09-12T13:37:35.929Z,22.1
2018-09-12T13:37:56.127Z,21.8
2018-09-12T13:38:16.275Z,21.9
2018-09-12T13:38:36.467Z,22.3
2018-09-12T13:38:56.606Z,22.1
2018-09-12T13:39:16.756Z,22.4
2018-09-12T13:39:36.939Z,22.3
2018-09-12T13:39:57.931Z,21.3
2018-09-12T13:40:18.103Z,21.9
2018-09-12T13:40:38.242Z,21.9
2018-09-12T13:40:58.419Z,21.5
2018-09-12T13:41:18.568Z,22.5
2018-09-12T13:41:38.766Z,22.4
2018-09-12T13:41:58.926Z,22.6
2018-09-12T13:42:19.064Z,22.2
2018-09-12T13:42:39.255Z,22.6
2018-09-12T13:42:59.411Z,22.9
2018-09-12T13:43:19.568Z,22.6
2018-09-12T13:43:39.728Z,23.3
2018-09-12T13:43:59.873Z,23.4
2018-09-12T13:44:20.091Z,22.4
2018-09-12T13:44:40.240Z,22.2
2018-09-12T13:45:00.390Z,21.7
2018-09-12T13:45:20.556Z,21.4
2018-09-12T13:45:40.720Z,21.7
2018-09-12T13:46:00.902Z,21.2
2018-09-12T13:46:21.066Z,21.7
2018-09-12T13:46:41.221Z,21.5
2018-09-12T13:47:01.392Z,21.5
2018-09-12T13:47:21.561Z,20.9
2018-09-12T13:47:41.748Z,21.7
2018-09-12T13:48:01.924Z,21.7
2018-09-12T13:48:22.087Z,21.6
2018-09-12T13:48:42.229Z,21.4
2018-09-12T13:49:02.391Z,21
2018-09-12T13:49:22.574Z,21.3
2018-09-12T13:49:42.767Z,20.8
2018-09-12T13:50:02.938Z,22.1
2018-09-12T13:50:23.226Z,20.2
2018-09-12T13:50:43.402Z,20.2
2018-09-12T13:51:03.570Z,19.7
2018-09-12T13:51:23.718Z,19.4
2018-09-12T13:51:43.881Z,19
2018-09-12T13:52:04.050Z,18.9
2018-09-12T13:52:24.216Z,18.8
2018-09-12T13:52:44.394Z,18.9
2018-09-12T13:53:04.554Z,18.8
2018-09-12T13:53:24.699Z,18.9
2018-09-12T13:53:44.864Z,18.9
2018-09-12T13:54:05.034Z,19.3
2018-09-12T13:54:25.220Z,19.3
2018-09-12T13:54:45.396Z,19.3
2018-09-12T13:55:05.559Z,19
2018-09-12T13:55:25.729Z,19.5
2018-09-12T13:55:45.875Z,19.9
2018-09-12T13:56:06.109Z,19.2
2018-09-12T13:56:26.299Z,19.5
2018-09-12T13:56:46.619Z,19.6
2018-09-12T13:57:06.711Z,19.4
2018-09-12T13:57:26.873Z,19.5
2018-09-12T13:57:47.048Z,19.3
2018-09-12T13:58:07.240Z,19.6
2018-09-12T13:58:27.426Z,19.8
2018-09-12T13:58:47.639Z,20.6
2018-09-12T13:59:07.801Z,19.8
2018-09-12T13:59:28.020Z,19.8
2018-09-12T13:59:48.195Z,20.2
2018-09-12T14:00:08.379Z,19.6
2018-09-12T14:00:28.600Z,19.8
2018-09-12T14:00:48.968Z,19.4
2018-09-12T14:01:09.175Z,18.6
2018-09-12T14:01:29.293Z,18.9
2018-09-12T14:01:51.647Z,19.5
2018-09-12T14:02:11.868Z,19.4
2018-09-12T14:02:32.066Z,20
2018-09-12T14:02:52.237Z,19.3
2018-09-12T14:03:12.493Z,19.6
2018-09-12T14:03:32.589Z,19.5
2018-09-12T14:03:52.723Z,19
2018-09-12T14:04:12.897Z,19.3
2018-09-12T14:04:33.089Z,18.9
2018-09-12T14:04:53.221Z,17.6
2018-09-12T14:05:13.385Z,18.2
2018-09-12T14:05:33.615Z,18
2018-09-12T14:05:53.802Z,18.7
2018-09-12T14:06:13.995Z,18.8
2018-09-12T14:06:34.179Z,18.9
2018-09-12T14:06:54.373Z,18.8
2018-09-12T14:07:14.549Z,18.5
2018-09-12T14:07:34.731Z,19
2018-09-12T14:07:54.901Z,19.3
2018-09-12T14:08:15.084Z,19.4
2018-09-12T14:08:35.269Z,19.5
2018-09-12T14:08:55.470Z,18.8
2018-09-12T14:09:16.612Z,19.7
2018-09-12T14:09:36.836Z,19.6
2018-09-12T14:09:57.007Z,19.5
2018-09-12T14:10:17.456Z,20.3
2018-09-12T14:10:37.669Z,19.8
2018-09-12T14:10:57.874Z,20.6
2018-09-12T14:11:18.053Z,20.7
2018-09-12T14:11:38.273Z,21.4
2018-09-12T14:11:58.445Z,21.2
2018-09-12T14:12:18.592Z,21.8
2018-09-12T14:12:38.765Z,21.9
2018-09-12T14:12:58.955Z,21.2
2018-09-12T14:13:19.128Z,21.7
2018-09-12T14:13:39.319Z,21.9
2018-09-12T14:13:59.497Z,21.6
2018-09-12T14:14:19.691Z,20.4
2018-09-12T14:14:39.849Z,20.1
2018-09-12T14:15:00.031Z,21.6
2018-09-12T14:15:20.194Z,20.8
2018-09-12T14:15:40.363Z,20.8
2018-09-12T14:16:00.555Z,21.4
2018-09-12T14:16:20.709Z,21.7
2018-09-12T14:16:40.858Z,21.2
2018-09-12T14:17:01.028Z,20.9
2018-09-12T14:17:21.267Z,20.6
2018-09-12T14:17:41.418Z,21.7
2018-09-12T14:18:01.575Z,21.5
2018-09-12T14:18:21.734Z,21.6
2018-09-12T14:18:41.850Z,20.8
2018-09-12T14:19:02.592Z,22.1
2018-09-12T14:19:23.332Z,22.4
2018-09-12T14:19:43.536Z,22.2
2018-09-12T14:20:03.733Z,22.5
2018-09-12T14:20:23.921Z,22.6
2018-09-12T14:20:44.094Z,22.6
2018-09-12T14:21:04.241Z,23.5
2018-09-12T14:21:24.415Z,23.2
2018-09-12T14:21:44.555Z,23.2
2018-09-12T14:22:04.743Z,23.6
2018-09-12T14:22:24.917Z,23.9
2018-09-12T14:22:45.182Z,23.7
2018-09-12T14:23:05.352Z,23.1
2018-09-12T14:23:25.558Z,23.2
2018-09-12T14:23:45.698Z,23
2018-09-12T14:24:05.868Z,23.1
2018-09-12T14:24:26.032Z,22.7
2018-09-12T14:24:46.215Z,23.6
2018-09-12T14:25:06.565Z,24
2018-09-12T14:25:26.736Z,24.2
2018-09-12T14:25:46.917Z,24.4
2018-09-12T14:26:07.073Z,24.7
2018-09-12T14:26:27.270Z,24.3
2018-09-12T14:26:47.449Z,24.1
2018-09-12T14:27:07.633Z,24.9
2018-09-12T14:27:27.827Z,24
2018-09-12T14:27:47.972Z,23.7
2018-09-12T14:28:08.133Z,22.7
2018-09-12T14:28:28.313Z,23
2018-09-12T14:28:48.486Z,24
2018-09-12T14:29:08.633Z,23
2018-09-12T14:29:28.790Z,22.9
2018-09-12T14:29:48.933Z,23.1
2018-09-12T14:30:09.082Z,23.2
2018-09-12T14:30:29.236Z,23.3
2018-09-12T14:30:49.392Z,23.2
2018-09-12T14:31:09.551Z,23.3
2018-09-12T14:31:29.740Z,22.5
2018-09-12T14:31:52.220Z,23.2
2018-09-12T14:32:12.444Z,23
2018-09-12T14:32:32.909Z,22.6
2018-09-12T14:32:53.050Z,22.6
2018-09-12T14:33:13.264Z,23.5
2018-09-12T14:33:33.433Z,23.7
2018-09-12T14:33:53.574Z,22.6
2018-09-12T14:34:13.749Z,21.7
2018-09-12T14:34:34.682Z,22.6
2018-09-12T14:34:54.864Z,21.7
2018-09-12T14:35:15.057Z,21.4
2018-09-12T14:35:35.373Z,21.5
2018-09-12T14:35:55.778Z,20.8
2018-09-12T14:36:16.027Z,20.9
2018-09-12T14:36:37.576Z,20.6
2018-09-12T14:36:58.759Z,21.5
2018-09-12T14:37:19.418Z,21.5
2018-09-12T14:37:39.876Z,21.3
2018-09-12T14:38:00.821Z,21.8
2018-09-12T14:38:21.284Z,20.8
2018-09-12T14:38:42.244Z,20.6
2018-09-12T14:39:02.920Z,21.6
2018-09-12T14:39:23.304Z,22
2018-09-12T14:39:43.897Z,21.8
2018-09-12T14:40:04.737Z,22.3
2018-09-12T14:40:26.025Z,22.2
2018-09-12T14:40:46.418Z,22.5
2018-09-12T14:41:07.007Z,22.6
2018-09-12T14:41:27.553Z,23.4
2018-09-12T14:41:48.419Z,24.2
2018-09-12T14:42:09.151Z,23.3
2018-09-12T14:42:29.468Z,23.8
2018-09-12T14:42:49.821Z,24
2018-09-12T14:43:10.175Z,23.1
2018-09-12T14:43:30.686Z,22.7
2018-09-12T14:43:51.164Z,23.6
2018-09-12T14:44:11.834Z,23
2018-09-12T14:44:32.369Z,23.2
2018-09-12T14:44:52.876Z,23
2018-09-12T14:45:13.630Z,22.7
2018-09-12T14:45:34.331Z,24.1
2018-09-12T14:45:55.443Z,23.8
2018-09-12T14:46:16.919Z,23.8
2018-09-12T14:46:42.496Z,24
2018-09-12T14:47:33.479Z,22.6
2018-09-12T14:48:45.740Z,23.8
2018-09-12T14:49:36.833Z,23.1
2018-09-12T14:50:14.144Z,21.9
2018-09-12T14:50:37.786Z,21.9
2018-09-12T14:51:03.998Z,22.5
2018-09-12T14:51:35.724Z,22.3
2018-09-12T14:53:20.681Z,21.4
2018-09-12T14:54:45.722Z,20.9
2018-09-12T14:56:05.939Z,20.6
2018-09-12T14:57:06.271Z,19.5
2018-09-12T14:58:07.839Z,19.4
2018-09-12T14:59:05.769Z,19.3
2018-09-12T15:00:04.158Z,18.8
2018-09-12T15:00:55.537Z,17.6
2018-09-12T15:01:43.557Z,17.6
2018-09-12T15:02:20.939Z,17.7
2018-09-12T15:03:10.721Z,17
2018-09-12T15:03:54.620Z,16.7
2018-09-12T15:04:31.465Z,16.6
2018-09-12T15:05:04.425Z,17.8
2018-09-12T15:05:42.954Z,17.8
2018-09-12T15:06:18.195Z,17.7
2018-09-12T15:07:06.809Z,17.7
2018-09-12T15:07:54.637Z,17.7
2018-09-12T15:08:45.309Z,17.4
2018-09-12T15:09:42.847Z,17.4
2018-09-12T15:10:23.076Z,17.2
2018-09-12T15:11:05.836Z,17.4
2018-09-12T15:11:51.245Z,17.2
2018-09-12T15:12:33.085Z,17.2
2018-09-12T15:13:21.447Z,16.5
2018-09-12T15:14:02.894Z,16.9
2018-09-12T15:14:47.485Z,16.6
2018-09-12T15:16:14.287Z,16.8
2018-09-12T15:17:39.318Z,16.8
2018-09-12T15:18:06.519Z,17
2018-09-12T15:18:35.719Z,16.4
2018-09-12T15:19:10.241Z,17
2018-09-12T15:19:49.101Z,17
2018-09-12T15:20:20.213Z,17.1
2018-09-12T15:20:46.952Z,16.3
2018-09-12T15:21:17.437Z,16.6
2018-09-12T15:21:54.298Z,17.2
2018-09-12T15:22:26.528Z,17.3
2018-09-12T15:22:59.457Z,17.6
2018-09-12T15:23:31.828Z,17.3
2018-09-12T15:24:29.506Z,17.2
2018-09-12T15:25:04.667Z,16.9
2018-09-12T15:25:42.117Z,17.4
2018-09-12T15:26:09.379Z,17
2018-09-12T15:26:45.108Z,17.3
2018-09-12T15:27:42.872Z,17.5
2018-09-12T15:28:12.346Z,17.5
2018-09-12T15:29:10.445Z,17.9
2018-09-12T15:29:40.219Z,17.8
2018-09-12T15:30:18.628Z,17.4
2018-09-12T15:30:57.838Z,17.7
2018-09-12T15:31:43.617Z,17.6
2018-09-12T15:32:32.932Z,18.3
2018-09-12T15:33:14.840Z,18.1
2018-09-12T15:34:06.714Z,18.8
2018-09-12T15:34:46.328Z,17.8
2018-09-12T15:35:41.285Z,18.6
2018-09-12T15:36:11.962Z,18.8
2018-09-12T15:36:45.073Z,19.3
2018-09-12T15:37:17.305Z,19.9
2018-09-12T15:38:00.018Z,20.6
2018-09-12T15:38:45.695Z,20.6
2018-09-12T15:39:41.713Z,21.4
2018-09-12T15:40:23.218Z,21.7
2018-09-12T15:41:35.704Z,22.1
2018-09-12T15:41:56.080Z,22.3
2018-09-12T15:42:16.383Z,22.1
2018-09-12T15:42:36.579Z,22.8
2018-09-12T15:42:56.915Z,23.1
2018-09-12T15:43:17.269Z,23.3
2018-09-12T15:43:37.673Z,23
2018-09-12T15:43:57.899Z,24.2
2018-09-12T15:44:18.090Z,23.9
2018-09-12T15:44:38.308Z,23.3
2018-09-12T15:44:58.453Z,23.5
2018-09-12T15:45:18.805Z,23.1
2018-09-12T15:45:39.150Z,23.7
2018-09-12T15:45:59.321Z,24.3
2018-09-12T15:46:19.482Z,23.2
2018-09-12T15:46:39.693Z,23.2
2018-09-12T15:46:59.886Z,24.2
2018-09-12T15:47:20.130Z,23.8
2018-09-12T15:47:40.181Z,24.1
2018-09-12T15:48:00.326Z,24.2
2018-09-12T15:48:20.501Z,24.9
2018-09-12T15:48:40.679Z,24.9
2018-09-12T15:49:00.847Z,25
2018-09-12T15:49:21.044Z,24.9
2018-09-12T15:49:41.198Z,25.1
2018-09-12T15:50:01.378Z,25.4
2018-09-12T15:50:21.514Z,25.8
2018-09-12T15:50:41.671Z,26
2018-09-12T15:51:01.831Z,25.7
2018-09-12T15:51:22.005Z,25.4
2018-09-12T15:51:42.152Z,25.6
2018-09-12T15:52:02.311Z,25.6
2018-09-12T15:52:22.463Z,25.8
2018-09-12T15:52:42.656Z,24.6
2018-09-12T15:53:02.828Z,25.1
2018-09-12T15:53:22.964Z,24.9
2018-09-12T15:53:43.141Z,24
2018-09-12T15:54:03.308Z,24.6
2018-09-12T15:54:23.475Z,25.1
2018-09-12T15:54:43.609Z,25.7
2018-09-12T15:55:03.809Z,25.5
2018-09-12T15:55:23.959Z,25.7
2018-09-12T15:55:44.108Z,25.8
2018-09-12T15:56:04.269Z,26
2018-09-12T15:56:24.436Z,25.9
2018-09-12T15:56:44.629Z,26.6
2018-09-12T15:57:04.748Z,26.6
2018-09-12T15:57:24.895Z,26.4
2018-09-12T15:57:45.105Z,26.7
2018-09-12T15:58:05.458Z,27.2
2018-09-12T15:58:25.803Z,27.3
2018-09-12T15:58:45.999Z,27.2
2018-09-12T15:59:06.163Z,27.3
2018-09-12T15:59:26.322Z,27.2
2018-09-12T15:59:46.486Z,27.7
2018-09-12T16:00:06.691Z,27.2
2018-09-12T16:00:26.832Z,27.6
2018-09-12T16:00:47.009Z,26.8
2018-09-12T16:01:07.169Z,26.7
2018-09-12T16:01:27.326Z,26.5
2018-09-12T16:01:47.517Z,26.6
2018-09-12T16:02:07.632Z,27.2
2018-09-12T16:02:27.760Z,27.5
2018-09-12T16:02:48.031Z,27.7
2018-09-12T16:03:08.125Z,27.6
2018-09-12T16:03:28.273Z,27.9
2018-09-12T16:03:48.411Z,27.9
2018-09-12T16:04:08.590Z,27.8
2018-09-12T16:04:28.737Z,28.3
2018-09-12T16:04:48.930Z,27.6
2018-09-12T16:05:09.081Z,28.1
2018-09-12T16:05:29.252Z,28.3
2018-09-12T16:05:49.442Z,28.4
2018-09-12T16:06:09.620Z,28.5
2018-09-12T16:06:29.759Z,28.1
2018-09-12T16:06:49.931Z,28.7
2018-09-12T16:07:10.083Z,28.4
2018-09-12T16:07:30.258Z,28.9
2018-09-12T16:07:50.415Z,28.6
2018-09-12T16:08:10.571Z,28.8
2018-09-12T16:08:30.695Z,28.5
2018-09-12T16:08:50.841Z,28.6
2018-09-12T16:09:12.566Z,28.7
2018-09-12T16:09:32.709Z,29
2018-09-12T16:09:52.849Z,29
2018-09-12T16:10:13.016Z,29.2
2018-09-12T16:10:33.707Z,29.2
2018-09-12T16:10:53.883Z,29
2018-09-12T16:11:14.027Z,29.4
2018-09-12T16:11:34.177Z,29.7
2018-09-12T16:11:54.338Z,29.2
2018-09-12T16:12:14.464Z,29.3
2018-09-12T16:12:34.625Z,29.9
2018-09-12T16:12:54.766Z,29.9
2018-09-12T16:13:14.972Z,29.6
2018-09-12T16:13:35.712Z,29.8
2018-09-12T16:13:55.866Z,29.6
2018-09-12T16:14:16.024Z,29.4
2018-09-12T16:14:36.181Z,29.7
2018-09-12T16:14:56.343Z,30
2018-09-12T16:15:16.564Z,30
2018-09-12T16:15:36.874Z,29.6
2018-09-12T16:15:57.042Z,29.1
2018-09-12T16:16:17.205Z,30.1
2018-09-12T16:16:37.374Z,30.6
2018-09-12T16:16:57.567Z,30.1
2018-09-12T16:17:17.711Z,29.5
2018-09-12T16:17:37.864Z,29.7
2018-09-12T16:17:58.029Z,29.8
2018-09-12T16:18:18.797Z,30.2
2018-09-12T16:18:38.943Z,30.3
2018-09-12T16:18:59.117Z,29.8
2018-09-12T16:19:19.271Z,30.4
2018-09-12T16:19:39.419Z,30.9
2018-09-12T16:19:59.585Z,30.4
2018-09-12T16:20:19.734Z,30.7
2018-09-12T16:20:39.892Z,31
2018-09-12T16:21:00.057Z,30.9
2018-09-12T16:21:20.229Z,31.2
2018-09-12T16:21:40.394Z,31.3
2018-09-12T16:22:00.540Z,31.2
2018-09-12T16:22:20.702Z,31.3
2018-09-12T16:22:40.868Z,31.3
2018-09-12T16:23:01.057Z,30.6
2018-09-12T16:23:21.171Z,30.7
2018-09-12T16:23:41.995Z,30.5
2018-09-12T16:24:02.145Z,30.8
2018-09-12T16:24:23.705Z,31.2
2018-09-12T16:24:43.849Z,31.1
2018-09-12T16:25:04.021Z,31.1
2018-09-12T16:25:24.188Z,30.9
2018-09-12T16:25:44.332Z,30.7
2018-09-12T16:26:04.468Z,31.2
2018-09-12T16:26:24.637Z,31.2
2018-09-12T16:26:44.802Z,31.3
2018-09-12T16:27:04.961Z,31.1
2018-09-12T16:27:25.121Z,31.5
2018-09-12T16:27:45.287Z,31.8
2018-09-12T16:28:05.444Z,31.8
2018-09-12T16:28:25.596Z,31.9
2018-09-12T16:28:45.764Z,31.7
2018-09-12T16:29:05.922Z,31.7
2018-09-12T16:29:26.079Z,31.7
2018-09-12T16:29:46.238Z,31.6
2018-09-12T16:30:06.399Z,31.3
2018-09-12T16:30:26.577Z,31.5
2018-09-12T16:30:46.726Z,31.6
2018-09-12T16:31:06.882Z,31.6
2018-09-12T16:31:27.060Z,31.7
2018-09-12T16:31:47.214Z,31.8
2018-09-12T16:32:07.368Z,31.8
2018-09-12T16:32:27.567Z,31.8
2018-09-12T16:32:47.838Z,32.1
2018-09-12T16:33:08.063Z,32.6
2018-09-12T16:33:28.120Z,32.6
2018-09-12T16:33:48.313Z,32.5
2018-09-12T16:34:08.461Z,32.6
2018-09-12T16:34:28.631Z,32.6
2018-09-12T16:34:48.804Z,32.6
2018-09-12T16:35:08.964Z,33
2018-09-12T16:35:29.079Z,33.2
2018-09-12T16:35:49.237Z,32.8
2018-09-12T16:36:11.687Z,32.7
2018-09-12T16:36:32.120Z,33
2018-09-12T16:36:52.287Z,33.3
2018-09-12T16:37:12.449Z,32.7
2018-09-12T16:37:32.601Z,32.6
2018-09-12T16:37:52.758Z,33
2018-09-12T16:38:12.913Z,33.1
2018-09-12T16:38:33.055Z,33.5
2018-09-12T16:38:53.220Z,33.5
2018-09-12T16:39:13.391Z,33.5
2018-09-12T16:39:33.552Z,33.4
2018-09-12T16:39:53.706Z,33.3
2018-09-12T16:40:13.895Z,33.3
2018-09-12T16:40:34.031Z,33.3
2018-09-12T16:40:54.190Z,33.1
2018-09-12T16:41:14.355Z,32.9
2018-09-12T16:41:34.535Z,32.9
2018-09-12T16:41:54.697Z,32.9
2018-09-12T16:42:14.868Z,33.3
2018-09-12T16:42:35.051Z,33.3
2018-09-12T16:42:55.218Z,33.5
2018-09-12T16:43:15.366Z,33.6
2018-09-12T16:43:35.509Z,33.5
2018-09-12T16:43:55.708Z,33.6
2018-09-12T16:44:15.865Z,33.3
2018-09-12T16:44:36.035Z,33.6
2018-09-12T16:44:56.196Z,33.4
2018-09-12T16:45:16.388Z,33.5
2018-09-12T16:45:36.546Z,33.5
2018-09-12T16:45:56.694Z,33.6
2018-09-12T16:46:16.834Z,33.7
2018-09-12T16:46:37.014Z,33.5
2018-09-12T16:46:57.169Z,33.7
2018-09-12T16:47:17.349Z,33.7
2018-09-12T16:47:38.268Z,33.7
2018-09-12T16:47:58.431Z,33.3
2018-09-12T16:48:18.594Z,33.4
2018-09-12T16:48:38.783Z,33.5
2018-09-12T16:48:58.927Z,33.2
2018-09-12T16:49:19.092Z,33.4
2018-09-12T16:49:39.255Z,33.5
2018-09-12T16:49:59.424Z,33.5
2018-09-12T16:50:19.552Z,33.6
2018-09-12T16:50:39.737Z,33.5
2018-09-12T16:50:59.904Z,34
2018-09-12T16:51:20.055Z,33.9
2018-09-12T16:51:40.332Z,33.2
2018-09-12T16:52:00.434Z,33.2
2018-09-12T16:52:20.595Z,33.9
2018-09-12T16:52:40.725Z,34.2
2018-09-12T16:53:00.910Z,33.5
2018-09-12T16:53:21.080Z,33.5
2018-09-12T16:53:41.202Z,33.6
2018-09-12T16:54:01.370Z,33.5
2018-09-12T16:54:21.524Z,33.4
2018-09-12T16:54:41.677Z,33.3
2018-09-12T16:55:01.810Z,33.5
2018-09-12T16:55:21.961Z,33.6
2018-09-12T16:55:42.130Z,33.7
2018-09-12T16:56:02.362Z,33.7
2018-09-12T16:56:22.585Z,33.7
2018-09-12T16:56:42.743Z,34
2018-09-12T16:57:02.894Z,34.3
2018-09-12T16:57:23.030Z,34.4
2018-09-12T16:57:43.200Z,34.2
2018-09-12T16:58:03.360Z,34.2
2018-09-12T16:58:23.512Z,34.3
2018-09-12T16:58:43.678Z,34.4
2018-09-12T16:59:03.836Z,34.2
2018-09-12T16:59:23.987Z,34.3
2018-09-12T16:59:44.144Z,34.4
2018-09-12T17:00:04.309Z,34.5
2018-09-12T17:00:24.447Z,34.4
2018-09-12T17:00:44.614Z,34.5
2018-09-12T17:01:04.756Z,34.4
2018-09-12T17:01:24.915Z,34.4
2018-09-12T17:01:45.091Z,34.4
2018-09-12T17:02:05.249Z,34.5
2018-09-12T17:02:25.420Z,34.4
2018-09-12T17:02:45.717Z,34.6
2018-09-12T17:03:05.857Z,34.8
2018-09-12T17:03:26.017Z,34.6
2018-09-12T17:03:46.183Z,35.1
2018-09-12T17:04:06.326Z,35.2
2018-09-12T17:04:26.489Z,35.3
2018-09-12T17:04:46.666Z,35.1
2018-09-12T17:05:06.841Z,35.5
2018-09-12T17:05:26.997Z,34.8
2018-09-12T17:05:47.158Z,35.3
2018-09-12T17:06:07.318Z,35.1
2018-09-12T17:06:27.487Z,35.3
2018-09-12T17:06:48.308Z,34.9
2018-09-12T17:07:08.492Z,35.1
2018-09-12T17:07:28.668Z,35.3
2018-09-12T17:07:48.813Z,35.3
2018-09-12T17:08:08.977Z,35.3
2018-09-12T17:08:29.093Z,35.2
2018-09-12T17:08:49.272Z,35.5
2018-09-12T17:09:09.444Z,35.8
2018-09-12T17:09:29.601Z,35.6
2018-09-12T17:09:49.829Z,35.6
2018-09-12T17:10:09.979Z,35.7
2018-09-12T17:10:30.140Z,35.4
2018-09-12T17:10:50.294Z,35.7
2018-09-12T17:11:10.435Z,35.2
2018-09-12T17:11:30.590Z,35.6
2018-09-12T17:11:50.744Z,36.1
2018-09-12T17:12:10.911Z,35.4
2018-09-12T17:12:31.055Z,35.6
2018-09-12T17:12:51.207Z,35.7
2018-09-12T17:13:11.358Z,35.7
2018-09-12T17:13:31.499Z,35.7
2018-09-12T17:13:51.656Z,35.9
2018-09-12T17:14:11.854Z,35.7
2018-09-12T17:14:32.041Z,35.6
2018-09-12T17:14:52.166Z,35.5
2018-09-12T17:15:12.351Z,35.5
2018-09-12T17:15:32.504Z,35.7
2018-09-12T17:15:52.659Z,36
2018-09-12T17:16:12.815Z,35.6
2018-09-12T17:16:32.988Z,35.7
2018-09-12T17:16:53.143Z,36.2
2018-09-12T17:17:13.291Z,36.2
2018-09-12T17:17:33.476Z,36.2
2018-09-12T17:17:53.641Z,36
2018-09-12T17:18:13.795Z,36
2018-09-12T17:18:33.963Z,36.3
2018-09-12T17:18:54.126Z,36.3
2018-09-12T17:19:14.275Z,36.4
2018-09-12T17:19:34.436Z,36.2
2018-09-12T17:19:54.581Z,36.2
2018-09-12T17:20:15.324Z,36.1
2018-09-12T17:20:35.442Z,36.3
2018-09-12T17:20:55.620Z,36.4
2018-09-12T17:21:15.752Z,36.6
2018-09-12T17:21:35.938Z,36.7
2018-09-12T17:21:56.136Z,36.7
2018-09-12T17:22:16.829Z,36.6
2018-09-12T17:22:36.986Z,36.5
2018-09-12T17:22:57.857Z,36.4
2018-09-12T17:23:19.479Z,36.6
2018-09-12T17:23:39.654Z,36.4
2018-09-12T17:24:00.965Z,36.3
2018-09-12T17:24:21.119Z,36.6
2018-09-12T17:24:43.186Z,36.6
2018-09-12T17:25:03.341Z,36.6
2018-09-12T17:25:23.492Z,36.8
2018-09-12T17:25:43.647Z,36.9
2018-09-12T17:26:03.812Z,36.7
2018-09-12T17:26:24.475Z,37.2
2018-09-12T17:26:44.642Z,37.1
2018-09-12T17:27:04.803Z,37.1
2018-09-12T17:27:24.954Z,37
2018-09-12T17:27:45.097Z,37.1
2018-09-12T17:28:05.258Z,37
2018-09-12T17:28:25.387Z,37.2
2018-09-12T17:28:45.548Z,37.5
2018-09-12T17:29:05.700Z,37.2
2018-09-12T17:29:25.855Z,37.4
2018-09-12T17:29:46.004Z,37.2
2018-09-12T17:30:06.156Z,37.2
2018-09-12T17:30:26.310Z,37.4
2018-09-12T17:30:46.467Z,37.3
2018-09-12T17:31:06.631Z,37.6
2018-09-12T17:31:26.789Z,37.6
2018-09-12T17:31:46.943Z,37.3
2018-09-12T17:32:07.128Z,37.3
2018-09-12T17:32:27.377Z,37.3
2018-09-12T17:32:47.528Z,37.3
2018-09-12T17:33:07.691Z,37.5
2018-09-12T17:33:27.879Z,37.7
2018-09-12T17:33:48.694Z,37.7
2018-09-12T17:34:08.849Z,37.7
2018-09-12T17:34:29.260Z,37.6
2018-09-12T17:34:49.434Z,37.5
2018-09-12T17:35:09.608Z,37.6
2018-09-12T17:35:29.772Z,37.6
2018-09-12T17:35:49.937Z,37.7
2018-09-12T17:36:10.104Z,37.9
2018-09-12T17:36:30.275Z,38
2018-09-12T17:36:50.436Z,37.9
2018-09-12T17:37:10.583Z,38.1
2018-09-12T17:37:30.754Z,38.2
2018-09-12T17:37:51.066Z,37.9
2018-09-12T17:38:11.266Z,38.1
2018-09-12T17:38:31.438Z,38.1
2018-09-12T17:38:51.595Z,38.1
2018-09-12T17:39:11.759Z,38.1
2018-09-12T17:39:31.931Z,38.2
2018-09-12T17:39:52.107Z,38.1
2018-09-12T17:40:12.258Z,38.3
2018-09-12T17:40:32.418Z,38.2
2018-09-12T17:40:52.583Z,38.3
2018-09-12T17:41:12.765Z,38.1
2018-09-12T17:41:32.928Z,38.3
2018-09-12T17:41:53.062Z,38.6
2018-09-12T17:42:13.263Z,38.6
2018-09-12T17:42:33.430Z,38.9
2018-09-12T17:42:53.586Z,38.8
2018-09-12T17:43:13.704Z,39.2
2018-09-12T17:43:33.876Z,39
2018-09-12T17:43:54.039Z,39.1
2018-09-12T17:44:14.186Z,38.8
2018-09-12T17:44:34.344Z,38.6
2018-09-12T17:44:54.474Z,38.6
2018-09-12T17:45:14.620Z,38.8
2018-09-12T17:45:34.792Z,39.1
2018-09-12T17:45:54.957Z,38.8
2018-09-12T17:46:15.100Z,38.8
2018-09-12T17:46:35.259Z,39.3
2018-09-12T17:46:55.417Z,39
2018-09-12T17:47:15.672Z,39.2
2018-09-12T17:47:35.834Z,39.1
2018-09-12T17:47:56.001Z,38.6
2018-09-12T17:48:16.173Z,38.8
2018-09-12T17:48:36.347Z,38.6
2018-09-12T17:48:56.523Z,39.2
2018-09-12T17:49:16.667Z,39.2
2018-09-12T17:49:36.818Z,38.9
2018-09-12T17:49:56.950Z,39.2
2018-09-12T17:50:17.117Z,39.2
2018-09-12T17:50:37.266Z,39.2
2018-09-12T17:50:57.419Z,39.4
2018-09-12T17:51:17.566Z,39.2
2018-09-12T17:51:37.727Z,39.2
2018-09-12T17:51:57.873Z,39.1
2018-09-12T17:52:18.023Z,39.2
2018-09-12T17:52:38.171Z,39.5
2018-09-12T17:52:58.312Z,39.2
2018-09-12T17:53:18.463Z,39.2
2018-09-12T17:53:38.592Z,39.3
2018-09-12T17:53:58.740Z,39.3
2018-09-12T17:54:18.889Z,39.4
2018-09-12T17:54:39.046Z,39.3
2018-09-12T17:54:59.197Z,39.1
2018-09-12T17:55:19.379Z,39
2018-09-12T17:55:39.613Z,39.4
2018-09-12T17:55:59.768Z,39.2
2018-09-12T17:56:19.930Z,39.5
2018-09-12T17:56:40.091Z,39.2
2018-09-12T17:57:00.222Z,39
2018-09-12T17:57:20.402Z,39.2
2018-09-12T17:57:40.544Z,39
2018-09-12T17:58:00.707Z,39.1
2018-09-12T17:58:20.852Z,39.7
2018-09-12T17:58:40.991Z,39.3
2018-09-12T17:59:01.172Z,39.2
2018-09-12T17:59:22.218Z,39.2
2018-09-12T17:59:42.440Z,39.2
2018-09-12T18:00:02.622Z,39.6
2018-09-12T18:00:23.152Z,39.7
2018-09-12T18:00:43.365Z,39.8
2018-09-12T18:01:03.599Z,39.3
2018-09-12T18:01:24.270Z,39.6
2018-09-12T18:01:44.482Z,40.2
2018-09-12T18:02:04.646Z,40.2
2018-09-12T18:02:24.894Z,40.3
2018-09-12T18:02:45.073Z,39.4
2018-09-12T18:03:06.208Z,39.7
2018-09-12T18:03:26.400Z,40.2
2018-09-12T18:03:46.738Z,40.1
2018-09-12T18:04:06.865Z,40.1
2018-09-12T18:04:27.038Z,40.1
2018-09-12T18:04:47.197Z,40.2
2018-09-12T18:05:07.392Z,40.1